»·PEaware :: N648CR KBOI-KGEG

N648CR :: KBOI-KGEG

FLIGHT INFORMATION

Flight Status: Arrived
Operator: Privately registered:
United States
More flights under this callsign
Pilot: James D. (19799)
Aircraft: CIRRUS VISIONJET
(SF50)
More flights by this aircraft type
Origin: KBOI Boise Air Terminal/Gowen
United States
Destination: KGEG Spokane Intl
United States
More flights between these airports :: More routes between these airports
Route: +
File this flight plan on PilotEdge
Remarks:
Altitude:
(Current/Filed)
0ft
Speed:
(Current/Filed)
0kts
Departed: 09-May-20 03:34 PM
Arrived: 09-May-20 04:34 PM
Distance/Time
Traveled:
250nm/1:00
Distance/Time
To Go:
Arrived

Flight Plot

Page will automatically refresh every two minutes.


Map Options




Map Legend


Flown Route
Filed Route
Departure Airport
Arrival Airport
Navaid (VOR, NDB)
Fix

Horizontal Profiles

Position Reports

Time Latitude Longitude Heading Altitude Ground
Speed
09-May-20 15:26 43.569586 -116.229867 183 2837ft 0kts
09-May-20 15:27 43.569586 -116.229867 183 2837ft 0kts
09-May-20 15:28 43.569586 -116.229867 183 2837ft 0kts
09-May-20 15:29 43.569486 -116.229900 200 2837ft 0kts
09-May-20 15:30 43.569179 -116.230274 273 2837ft 6kts
09-May-20 15:31 43.570954 -116.236075 248 2825ft 8kts
09-May-20 15:32 43.570913 -116.236171 229 2825ft 0kts
09-May-20 15:33 43.568803 -116.232628 113 2834ft 73kts
09-May-20 15:34 43.561886 -116.190244 53 4117ft 140kts
09-May-20 15:35 43.594182 -116.213500 319 6047ft 170kts
09-May-20 15:36 43.640556 -116.245679 348 7786ft 210kts
09-May-20 15:37 43.701328 -116.264161 349 9506ft 236kts
09-May-20 15:38 43.767115 -116.284065 348 11217ft 248kts
09-May-20 15:39 43.835166 -116.304702 348 12928ft 252kts
09-May-20 15:40 43.903670 -116.325519 348 14487ft 258kts
09-May-20 15:41 43.980906 -116.349062 348 14526ft 299kts
09-May-20 15:42 44.062557 -116.374018 348 14529ft 303kts
09-May-20 15:43 44.144456 -116.399118 348 14527ft 303kts
09-May-20 15:44 44.226994 -116.424480 348 14548ft 303kts
09-May-20 15:45 44.309190 -116.449811 348 14575ft 303kts
09-May-20 15:46 44.391612 -116.475285 348 14578ft 304kts
09-May-20 15:47 44.473912 -116.500794 348 14573ft 304kts
09-May-20 15:48 44.556588 -116.526503 348 14577ft 304kts
09-May-20 15:49 44.639089 -116.552219 348 14590ft 304kts
09-May-20 15:50 44.721561 -116.578001 348 14592ft 304kts
09-May-20 15:51 44.804136 -116.603895 348 14592ft 304kts
09-May-20 15:52 44.886810 -116.629897 348 14593ft 304kts
09-May-20 15:53 44.969481 -116.655969 347 14592ft 304kts
09-May-20 15:54 45.052029 -116.682061 345 14593ft 304kts
09-May-20 15:55 45.133629 -116.707973 344 14595ft 299kts
09-May-20 15:56 45.214341 -116.733666 344 14591ft 295kts
09-May-20 15:57 45.294398 -116.759215 344 14591ft 294kts
09-May-20 15:58 45.374069 -116.784720 344 14577ft 294kts
09-May-20 15:59 45.453552 -116.810229 344 14563ft 294kts
09-May-20 16:00 45.533442 -116.835939 344 14545ft 294kts
09-May-20 16:01 45.613274 -116.861724 344 14523ft 294kts
09-May-20 16:02 45.692752 -116.887458 344 14518ft 294kts
09-May-20 16:03 45.772449 -116.913341 344 14518ft 294kts
09-May-20 16:04 45.852289 -116.939346 344 14518ft 294kts
09-May-20 16:05 45.932023 -116.965391 344 14518ft 294kts
09-May-20 16:06 46.011754 -116.991509 344 14518ft 294kts
09-May-20 16:07 46.091635 -117.017763 344 14518ft 295kts
09-May-20 16:08 46.171610 -117.044123 344 14517ft 295kts
09-May-20 16:09 46.251743 -117.070611 344 14518ft 295kts
09-May-20 16:10 46.331590 -117.097085 344 14517ft 295kts
09-May-20 16:11 46.411646 -117.123707 345 14519ft 296kts
09-May-20 16:12 46.491656 -117.150395 345 14545ft 295kts
09-May-20 16:13 46.571318 -117.177047 345 14562ft 295kts
09-May-20 16:14 46.652054 -117.204141 345 14563ft 296kts
09-May-20 16:15 46.732159 -117.231106 345 14563ft 296kts
09-May-20 16:16 46.812108 -117.258101 345 13871ft 293kts
09-May-20 16:17 46.891161 -117.284875 345 12870ft 291kts
09-May-20 16:18 46.968366 -117.311113 346 11862ft 276kts
09-May-20 16:19 47.042102 -117.336226 347 10853ft 270kts
09-May-20 16:20 47.100539 -117.402913 318 9845ft 269kts
09-May-20 16:21 47.153936 -117.474801 318 8849ft 257kts
09-May-20 16:22 47.205934 -117.545966 318 7851ft 253kts
09-May-20 16:23 47.257179 -117.616685 318 6854ft 252kts
09-May-20 16:24 47.309462 -117.686588 334 6404ft 263kts
09-May-20 16:25 47.375002 -117.724609 340 6494ft 238kts
09-May-20 16:26 47.436120 -117.759471 340 6190ft 233kts
09-May-20 16:27 47.493979 -117.763359 57 5860ft 225kts
09-May-20 16:28 47.523433 -117.694072 47 5424ft 160kts
09-May-20 16:29 47.547921 -117.640919 54 4394ft 151kts
09-May-20 16:30 47.575634 -117.602628 44 3445ft 123kts
09-May-20 16:31 47.595883 -117.571900 44 2983ft 79kts
09-May-20 16:32 47.610942 -117.548857 46 2408ft 69kts
09-May-20 16:33 47.619244 -117.536247 46 2365ft 25kts
09-May-20 16:34 47.620783 -117.530540 47 2359ft 8kts
09-May-20 16:35 47.622726 -117.527564 44 2355ft 13kts
09-May-20 16:36 47.623301 -117.524520 87 2353ft 4kts
09-May-20 16:37 47.623651 -117.524498 270 2351ft 0kts
09-May-20 16:38 47.623651 -117.524498 270 2351ft 0kts

Navigation Log

Ident Type
Flight plan parsing failed, navigation log unavailable